createdAt,value
2019-01-27T00:02:08.959Z,53.2
2019-01-27T00:18:56.321Z,53.2
2019-01-27T00:35:43.858Z,52.8
2019-01-27T00:52:31.499Z,52.8
2019-01-27T01:09:19.160Z,52.8
2019-01-27T01:26:06.678Z,52.0
2019-01-27T01:42:54.078Z,52.0
2019-01-27T01:59:41.595Z,52.0
2019-01-27T02:16:28.878Z,52.0
2019-01-27T02:33:16.178Z,51.6
2019-01-27T02:50:03.374Z,51.6
2019-01-27T03:06:50.964Z,51.6
2019-01-27T03:23:37.757Z,51.6
2019-01-27T03:40:24.680Z,51.6
2019-01-27T03:57:11.651Z,51.6
2019-01-27T04:13:58.608Z,51.2
2019-01-27T04:30:45.437Z,50.8
2019-01-27T04:47:32.309Z,50.8
2019-01-27T05:04:19.169Z,50.8
2019-01-27T05:21:05.824Z,50.8
2019-01-27T05:37:52.624Z,50.4
2019-01-27T05:54:39.274Z,50.4
2019-01-27T06:11:26.000Z,50.4
2019-01-27T06:28:12.843Z,50.4
2019-01-27T06:44:59.579Z,50.4
2019-01-27T07:01:46.448Z,50.4
2019-01-27T07:18:33.380Z,50.4
2019-01-27T07:35:20.302Z,50.0
2019-01-27T07:52:07.218Z,50.0
2019-01-27T08:08:54.174Z,50.0
2019-01-27T08:25:41.314Z,49.6
2019-01-27T08:42:28.256Z,49.6
2019-01-27T08:59:15.411Z,49.6
2019-01-27T09:16:02.967Z,49.2
2019-01-27T09:32:50.217Z,49.6
2019-01-27T09:49:37.134Z,49.6
2019-01-27T10:06:24.241Z,49.6
2019-01-27T10:23:12.293Z,49.6
2019-01-27T10:39:58.506Z,50.0
2019-01-27T10:56:46.263Z,50.0
2019-01-27T11:13:33.993Z,49.6
2019-01-27T11:30:21.997Z,49.6
2019-01-27T11:47:09.862Z,49.6
2019-01-27T12:03:57.779Z,50.8
2019-01-27T12:20:45.695Z,51.2
2019-01-27T12:37:33.601Z,51.6
2019-01-27T12:54:21.585Z,52.4
2019-01-27T13:11:09.515Z,52.4
2019-01-27T13:27:57.290Z,52.8
2019-01-27T13:44:45.254Z,52.8
2019-01-27T14:01:33.143Z,53.2
2019-01-27T14:18:21.312Z,53.2
2019-01-27T14:35:09.267Z,53.2
2019-01-27T14:51:57.506Z,53.2
2019-01-27T15:08:46.130Z,54.0
2019-01-27T15:25:34.301Z,54.0
2019-01-27T15:42:29.851Z,53.2
2019-01-27T15:59:10.861Z,53.2
2019-01-27T16:15:59.505Z,53.6
2019-01-27T16:32:47.289Z,53.6
2019-01-27T16:49:35.436Z,54.4
2019-01-27T17:06:23.582Z,54.4
2019-01-27T17:23:11.980Z,54.0
2019-01-27T17:40:00.369Z,54.4
2019-01-27T17:56:48.366Z,54.8
2019-01-27T18:13:36.585Z,54.8
2019-01-27T18:30:24.942Z,54.8
2019-01-27T18:47:13.075Z,55.2
2019-01-27T19:04:01.238Z,55.2
2019-01-27T19:20:49.511Z,55.2
2019-01-27T19:37:37.598Z,55.2
2019-01-27T19:54:26.134Z,55.2
2019-01-27T20:11:14.021Z,56.0
2019-01-27T20:28:02.383Z,56.8
2019-01-27T20:44:50.490Z,57.2
2019-01-27T21:01:38.084Z,57.2
2019-01-27T21:18:25.984Z,57.2
2019-01-27T21:35:13.424Z,57.2
2019-01-27T21:52:01.039Z,57.6
2019-01-27T22:08:48.810Z,57.6
2019-01-27T22:25:36.672Z,57.2
2019-01-27T22:42:24.399Z,57.2
2019-01-27T22:59:12.081Z,56.4
2019-01-27T23:15:59.576Z,56.0
2019-01-27T23:32:47.017Z,56.0
2019-01-27T23:49:34.368Z,55.6
